sensor_id;sensor_type;location;lat;lon;timestamp;P1;durP1;ratioP1;P2;durP2;ratioP2
23567;SDS011;11962;50.838;4.430;2023-05-19T00:01:06;11.10;;;5.80;;
23567;SDS011;11962;50.838;4.430;2023-05-19T00:03:33;11.00;;;5.68;;
23567;SDS011;11962;50.838;4.430;2023-05-19T00:06:01;10.48;;;5.80;;
23567;SDS011;11962;50.838;4.430;2023-05-19T00:08:29;14.35;;;5.63;;
23567;SDS011;11962;50.838;4.430;2023-05-19T00:10:56;11.27;;;5.78;;
23567;SDS011;11962;50.838;4.430;2023-05-19T00:13:22;13.18;;;6.00;;
23567;SDS011;11962;50.838;4.430;2023-05-19T00:15:49;13.48;;;6.05;;
23567;SDS011;11962;50.838;4.430;2023-05-19T00:18:15;13.25;;;6.10;;
23567;SDS011;11962;50.838;4.430;2023-05-19T00:20:41;12.80;;;5.80;;
23567;SDS011;11962;50.838;4.430;2023-05-19T00:23:08;12.05;;;6.05;;
23567;SDS011;11962;50.838;4.430;2023-05-19T00:25:34;16.08;;;6.18;;
23567;SDS011;11962;50.838;4.430;2023-05-19T00:28:01;13.75;;;6.13;;
23567;SDS011;11962;50.838;4.430;2023-05-19T00:30:27;15.80;;;6.38;;
23567;SDS011;11962;50.838;4.430;2023-05-19T00:32:56;17.85;;;6.80;;
23567;SDS011;11962;50.838;4.430;2023-05-19T00:35:22;10.98;;;6.30;;
23567;SDS011;11962;50.838;4.430;2023-05-19T00:37:48;13.65;;;6.13;;
23567;SDS011;11962;50.838;4.430;2023-05-19T00:40:14;12.40;;;6.05;;
23567;SDS011;11962;50.838;4.430;2023-05-19T00:42:40;11.98;;;6.55;;
23567;SDS011;11962;50.838;4.430;2023-05-19T00:45:06;13.73;;;6.68;;
23567;SDS011;11962;50.838;4.430;2023-05-19T00:47:32;13.02;;;6.68;;
23567;SDS011;11962;50.838;4.430;2023-05-19T00:49:58;13.13;;;6.70;;
23567;SDS011;11962;50.838;4.430;2023-05-19T00:52:24;12.80;;;6.53;;
23567;SDS011;11962;50.838;4.430;2023-05-19T00:54:51;14.45;;;7.22;;
23567;SDS011;11962;50.838;4.430;2023-05-19T00:57:19;15.63;;;7.38;;
23567;SDS011;11962;50.838;4.430;2023-05-19T00:59:46;12.68;;;6.82;;
23567;SDS011;11962;50.838;4.430;2023-05-19T01:02:14;13.18;;;7.28;;
23567;SDS011;11962;50.838;4.430;2023-05-19T01:04:40;18.30;;;7.07;;
23567;SDS011;11962;50.838;4.430;2023-05-19T01:07:07;15.00;;;7.47;;
23567;SDS011;11962;50.838;4.430;2023-05-19T01:09:34;11.13;;;7.25;;
23567;SDS011;11962;50.838;4.430;2023-05-19T01:12:01;11.98;;;7.13;;
23567;SDS011;11962;50.838;4.430;2023-05-19T01:14:27;18.55;;;7.07;;
23567;SDS011;11962;50.838;4.430;2023-05-19T01:30:40;13.82;;;7.30;;
23567;SDS011;11962;50.838;4.430;2023-05-19T01:33:10;12.68;;;7.53;;
23567;SDS011;11962;50.838;4.430;2023-05-19T01:35:40;10.13;;;7.25;;
23567;SDS011;11962;50.838;4.430;2023-05-19T01:38:08;19.58;;;7.55;;
23567;SDS011;11962;50.838;4.430;2023-05-19T01:40:35;15.45;;;8.43;;
23567;SDS011;11962;50.838;4.430;2023-05-19T01:43:03;12.90;;;8.23;;
23567;SDS011;11962;50.838;4.430;2023-05-19T01:45:31;11.27;;;7.80;;
23567;SDS011;11962;50.838;4.430;2023-05-19T01:47:58;15.85;;;7.97;;
23567;SDS011;11962;50.838;4.430;2023-05-19T01:50:26;13.63;;;8.80;;
23567;SDS011;11962;50.838;4.430;2023-05-19T01:52:52;15.38;;;8.25;;
23567;SDS011;11962;50.838;4.430;2023-05-19T01:55:18;18.00;;;8.45;;
23567;SDS011;11962;50.838;4.430;2023-05-19T02:00:17;17.42;;;8.57;;
23567;SDS011;11962;50.838;4.430;2023-05-19T02:02:55;14.57;;;8.60;;
23567;SDS011;11962;50.838;4.430;2023-05-19T02:10:50;18.55;;;10.02;;
23567;SDS011;11962;50.838;4.430;2023-05-19T02:13:26;15.32;;;8.32;;
23567;SDS011;11962;50.838;4.430;2023-05-19T02:15:59;16.98;;;9.32;;
23567;SDS011;11962;50.838;4.430;2023-05-19T02:18:29;15.27;;;9.02;;
23567;SDS011;11962;50.838;4.430;2023-05-19T02:20:57;15.05;;;8.60;;
23567;SDS011;11962;50.838;4.430;2023-05-19T02:23:23;12.93;;;8.88;;
23567;SDS011;11962;50.838;4.430;2023-05-19T02:25:49;20.55;;;9.02;;
23567;SDS011;11962;50.838;4.430;2023-05-19T02:28:15;16.38;;;9.52;;
23567;SDS011;11962;50.838;4.430;2023-05-19T02:30:41;16.25;;;9.15;;
23567;SDS011;11962;50.838;4.430;2023-05-19T02:33:06;13.30;;;8.85;;
23567;SDS011;11962;50.838;4.430;2023-05-19T02:35:32;14.25;;;8.98;;
23567;SDS011;11962;50.838;4.430;2023-05-19T02:37:58;17.67;;;9.27;;
23567;SDS011;11962;50.838;4.430;2023-05-19T02:40:24;18.35;;;9.65;;
23567;SDS011;11962;50.838;4.430;2023-05-19T02:42:49;17.85;;;8.85;;
23567;SDS011;11962;50.838;4.430;2023-05-19T02:45:15;16.60;;;9.63;;
23567;SDS011;11962;50.838;4.430;2023-05-19T02:47:41;18.58;;;9.90;;
23567;SDS011;11962;50.838;4.430;2023-05-19T02:50:07;15.93;;;9.93;;
23567;SDS011;11962;50.838;4.430;2023-05-19T02:52:33;17.42;;;9.60;;
23567;SDS011;11962;50.838;4.430;2023-05-19T02:54:58;23.58;;;9.52;;
23567;SDS011;11962;50.838;4.430;2023-05-19T02:57:24;16.58;;;10.20;;
23567;SDS011;11962;50.838;4.430;2023-05-19T02:59:53;16.02;;;9.85;;
23567;SDS011;11962;50.838;4.430;2023-05-19T03:02:20;20.15;;;10.40;;
23567;SDS011;11962;50.838;4.430;2023-05-19T03:04:45;18.90;;;10.60;;
23567;SDS011;11962;50.838;4.430;2023-05-19T03:07:11;17.17;;;9.75;;
23567;SDS011;11962;50.838;4.430;2023-05-19T03:09:37;25.63;;;10.90;;
23567;SDS011;11962;50.838;4.430;2023-05-19T03:12:03;18.75;;;10.13;;
23567;SDS011;11962;50.838;4.430;2023-05-19T03:14:31;15.80;;;10.07;;
23567;SDS011;11962;50.838;4.430;2023-05-19T03:16:58;19.98;;;10.48;;
23567;SDS011;11962;50.838;4.430;2023-05-19T03:19:25;17.23;;;10.23;;
23567;SDS011;11962;50.838;4.430;2023-05-19T03:21:51;16.25;;;10.27;;
23567;SDS011;11962;50.838;4.430;2023-05-19T03:24:17;16.05;;;10.88;;
23567;SDS011;11962;50.838;4.430;2023-05-19T03:26:42;17.45;;;10.30;;
23567;SDS011;11962;50.838;4.430;2023-05-19T03:29:08;19.90;;;10.57;;
23567;SDS011;11962;50.838;4.430;2023-05-19T03:31:34;19.35;;;10.85;;
23567;SDS011;11962;50.838;4.430;2023-05-19T03:34:00;20.77;;;10.57;;
23567;SDS011;11962;50.838;4.430;2023-05-19T03:36:26;19.17;;;10.75;;
23567;SDS011;11962;50.838;4.430;2023-05-19T03:38:56;16.42;;;10.93;;
23567;SDS011;11962;50.838;4.430;2023-05-19T03:41:22;20.58;;;10.40;;
23567;SDS011;11962;50.838;4.430;2023-05-19T03:43:48;19.65;;;11.07;;
23567;SDS011;11962;50.838;4.430;2023-05-19T03:46:13;18.50;;;11.75;;
23567;SDS011;11962;50.838;4.430;2023-05-19T03:48:39;17.48;;;11.05;;
23567;SDS011;11962;50.838;4.430;2023-05-19T03:51:05;19.23;;;11.00;;
23567;SDS011;11962;50.838;4.430;2023-05-19T03:53:31;17.70;;;10.55;;
23567;SDS011;11962;50.838;4.430;2023-05-19T03:55:57;20.00;;;11.45;;
23567;SDS011;11962;50.838;4.430;2023-05-19T03:58:23;17.13;;;11.20;;
23567;SDS011;11962;50.838;4.430;2023-05-19T04:00:49;18.20;;;11.27;;
23567;SDS011;11962;50.838;4.430;2023-05-19T04:03:15;16.45;;;10.10;;
23567;SDS011;11962;50.838;4.430;2023-05-19T04:05:41;19.95;;;11.73;;
23567;SDS011;11962;50.838;4.430;2023-05-19T04:08:06;16.80;;;10.93;;
23567;SDS011;11962;50.838;4.430;2023-05-19T04:10:32;16.58;;;11.25;;
23567;SDS011;11962;50.838;4.430;2023-05-19T04:12:58;19.08;;;12.02;;
23567;SDS011;11962;50.838;4.430;2023-05-19T04:15:23;18.95;;;11.23;;
23567;SDS011;11962;50.838;4.430;2023-05-19T04:17:49;24.05;;;11.27;;
23567;SDS011;11962;50.838;4.430;2023-05-19T04:20:15;24.92;;;11.15;;
23567;SDS011;11962;50.838;4.430;2023-05-19T04:22:41;19.70;;;11.80;;
23567;SDS011;11962;50.838;4.430;2023-05-19T04:25:07;19.25;;;12.00;;
23567;SDS011;11962;50.838;4.430;2023-05-19T04:27:33;18.38;;;11.18;;
23567;SDS011;11962;50.838;4.430;2023-05-19T04:30:03;17.08;;;11.73;;
23567;SDS011;11962;50.838;4.430;2023-05-19T04:32:30;19.48;;;11.55;;
23567;SDS011;11962;50.838;4.430;2023-05-19T04:34:56;17.83;;;11.00;;
23567;SDS011;11962;50.838;4.430;2023-05-19T04:37:23;20.90;;;11.95;;
23567;SDS011;11962;50.838;4.430;2023-05-19T04:39:51;19.30;;;11.55;;
23567;SDS011;11962;50.838;4.430;2023-05-19T04:42:18;18.17;;;11.30;;
23567;SDS011;11962;50.838;4.430;2023-05-19T04:44:44;19.10;;;10.95;;
23567;SDS011;11962;50.838;4.430;2023-05-19T04:47:10;18.63;;;11.35;;
23567;SDS011;11962;50.838;4.430;2023-05-19T04:49:37;17.25;;;10.82;;
23567;SDS011;11962;50.838;4.430;2023-05-19T04:52:06;17.60;;;11.65;;
23567;SDS011;11962;50.838;4.430;2023-05-19T04:54:34;20.08;;;11.73;;
23567;SDS011;11962;50.838;4.430;2023-05-19T04:57:00;19.88;;;11.77;;
23567;SDS011;11962;50.838;4.430;2023-05-19T04:59:26;17.88;;;11.82;;
23567;SDS011;11962;50.838;4.430;2023-05-19T05:01:52;25.00;;;11.77;;
23567;SDS011;11962;50.838;4.430;2023-05-19T05:04:18;21.02;;;11.90;;
23567;SDS011;11962;50.838;4.430;2023-05-19T05:06:45;20.08;;;12.05;;
23567;SDS011;11962;50.838;4.430;2023-05-19T05:09:15;21.05;;;11.25;;
23567;SDS011;11962;50.838;4.430;2023-05-19T05:11:42;27.42;;;12.50;;
23567;SDS011;11962;50.838;4.430;2023-05-19T05:14:08;19.13;;;12.10;;
23567;SDS011;11962;50.838;4.430;2023-05-19T05:16:35;17.83;;;11.75;;
23567;SDS011;11962;50.838;4.430;2023-05-19T05:19:01;17.67;;;12.75;;
23567;SDS011;11962;50.838;4.430;2023-05-19T05:21:27;20.27;;;12.13;;
23567;SDS011;11962;50.838;4.430;2023-05-19T05:23:54;21.52;;;12.50;;
23567;SDS011;11962;50.838;4.430;2023-05-19T05:26:20;20.42;;;11.13;;
23567;SDS011;11962;50.838;4.430;2023-05-19T05:28:49;18.05;;;12.13;;
23567;SDS011;11962;50.838;4.430;2023-05-19T05:31:15;19.33;;;11.38;;
23567;SDS011;11962;50.838;4.430;2023-05-19T05:33:41;21.27;;;11.80;;
23567;SDS011;11962;50.838;4.430;2023-05-19T05:36:07;20.77;;;11.75;;
23567;SDS011;11962;50.838;4.430;2023-05-19T05:38:33;19.77;;;12.13;;
23567;SDS011;11962;50.838;4.430;2023-05-19T05:40:59;20.75;;;11.35;;
23567;SDS011;11962;50.838;4.430;2023-05-19T05:43:26;21.33;;;11.35;;
23567;SDS011;11962;50.838;4.430;2023-05-19T05:45:52;17.48;;;11.13;;
23567;SDS011;11962;50.838;4.430;2023-05-19T05:48:18;31.90;;;11.77;;
23567;SDS011;11962;50.838;4.430;2023-05-19T05:50:44;18.98;;;11.07;;
23567;SDS011;11962;50.838;4.430;2023-05-19T05:53:11;19.05;;;10.77;;
23567;SDS011;11962;50.838;4.430;2023-05-19T05:55:43;20.27;;;9.93;;
23567;SDS011;11962;50.838;4.430;2023-05-19T05:58:12;14.82;;;9.23;;
23567;SDS011;11962;50.838;4.430;2023-05-19T06:00:39;14.63;;;8.50;;
23567;SDS011;11962;50.838;4.430;2023-05-19T06:03:07;16.95;;;9.02;;
23567;SDS011;11962;50.838;4.430;2023-05-19T06:05:34;15.85;;;7.97;;
23567;SDS011;11962;50.838;4.430;2023-05-19T06:08:01;15.35;;;8.45;;
23567;SDS011;11962;50.838;4.430;2023-05-19T06:10:27;16.85;;;8.68;;
23567;SDS011;11962;50.838;4.430;2023-05-19T06:12:53;12.60;;;8.15;;
23567;SDS011;11962;50.838;4.430;2023-05-19T06:15:19;9.82;;;7.05;;
23567;SDS011;11962;50.838;4.430;2023-05-19T06:17:45;10.70;;;7.13;;
23567;SDS011;11962;50.838;4.430;2023-05-19T06:20:11;14.63;;;7.03;;
23567;SDS011;11962;50.838;4.430;2023-05-19T06:22:38;18.80;;;7.47;;
23567;SDS011;11962;50.838;4.430;2023-05-19T06:25:04;16.25;;;6.85;;
23567;SDS011;11962;50.838;4.430;2023-05-19T06:27:32;8.93;;;6.32;;
23567;SDS011;11962;50.838;4.430;2023-05-19T06:29:59;8.63;;;6.07;;
23567;SDS011;11962;50.838;4.430;2023-05-19T06:32:25;12.32;;;6.13;;
23567;SDS011;11962;50.838;4.430;2023-05-19T06:34:51;14.05;;;7.00;;
23567;SDS011;11962;50.838;4.430;2023-05-19T06:37:23;13.38;;;6.65;;
23567;SDS011;11962;50.838;4.430;2023-05-19T06:39:52;12.50;;;6.43;;
23567;SDS011;11962;50.838;4.430;2023-05-19T06:42:18;11.27;;;6.85;;
23567;SDS011;11962;50.838;4.430;2023-05-19T06:44:49;12.50;;;6.53;;
23567;SDS011;11962;50.838;4.430;2023-05-19T06:47:16;13.02;;;6.05;;
23567;SDS011;11962;50.838;4.430;2023-05-19T06:49:46;10.00;;;6.18;;
23567;SDS011;11962;50.838;4.430;2023-05-19T06:52:15;11.18;;;6.43;;
23567;SDS011;11962;50.838;4.430;2023-05-19T06:54:41;13.80;;;6.55;;
23567;SDS011;11962;50.838;4.430;2023-05-19T06:57:07;13.30;;;5.93;;
23567;SDS011;11962;50.838;4.430;2023-05-19T06:59:32;11.52;;;6.70;;
23567;SDS011;11962;50.838;4.430;2023-05-19T07:01:58;12.13;;;6.47;;
23567;SDS011;11962;50.838;4.430;2023-05-19T07:06:51;9.90;;;6.00;;
23567;SDS011;11962;50.838;4.430;2023-05-19T07:09:17;12.73;;;5.85;;
23567;SDS011;11962;50.838;4.430;2023-05-19T07:11:43;9.88;;;5.50;;
23567;SDS011;11962;50.838;4.430;2023-05-19T07:14:08;9.25;;;5.90;;
23567;SDS011;11962;50.838;4.430;2023-05-19T07:16:34;10.18;;;5.50;;
23567;SDS011;11962;50.838;4.430;2023-05-19T07:19:00;11.65;;;5.70;;
23567;SDS011;11962;50.838;4.430;2023-05-19T07:21:25;8.02;;;5.53;;
23567;SDS011;11962;50.838;4.430;2023-05-19T07:23:51;10.30;;;5.55;;
23567;SDS011;11962;50.838;4.430;2023-05-19T07:26:17;9.70;;;5.20;;
23567;SDS011;11962;50.838;4.430;2023-05-19T07:28:43;8.55;;;5.30;;
23567;SDS011;11962;50.838;4.430;2023-05-19T07:31:09;9.43;;;5.35;;
23567;SDS011;11962;50.838;4.430;2023-05-19T07:33:34;7.80;;;5.30;;
23567;SDS011;11962;50.838;4.430;2023-05-19T07:36:00;10.95;;;5.82;;
23567;SDS011;11962;50.838;4.430;2023-05-19T07:38:26;12.13;;;5.22;;
23567;SDS011;11962;50.838;4.430;2023-05-19T07:40:52;8.57;;;5.38;;
23567;SDS011;11962;50.838;4.430;2023-05-19T07:43:18;8.18;;;5.38;;
23567;SDS011;11962;50.838;4.430;2023-05-19T07:45:44;11.32;;;5.68;;
23567;SDS011;11962;50.838;4.430;2023-05-19T07:48:10;10.85;;;5.50;;
23567;SDS011;11962;50.838;4.430;2023-05-19T07:50:35;10.02;;;5.43;;
23567;SDS011;11962;50.838;4.430;2023-05-19T07:53:01;8.73;;;5.10;;
23567;SDS011;11962;50.838;4.430;2023-05-19T07:55:27;9.65;;;4.95;;
23567;SDS011;11962;50.838;4.430;2023-05-19T07:57:53;8.88;;;5.03;;
23567;SDS011;11962;50.838;4.430;2023-05-19T08:00:18;14.73;;;5.15;;
23567;SDS011;11962;50.838;4.430;2023-05-19T08:02:44;11.32;;;5.50;;
23567;SDS011;11962;50.838;4.430;2023-05-19T08:05:10;12.13;;;5.03;;
23567;SDS011;11962;50.838;4.430;2023-05-19T08:07:36;13.60;;;5.88;;
23567;SDS011;11962;50.838;4.430;2023-05-19T08:10:02;9.43;;;4.53;;
23567;SDS011;11962;50.838;4.430;2023-05-19T08:12:28;8.82;;;4.72;;
23567;SDS011;11962;50.838;4.430;2023-05-19T08:14:53;11.65;;;4.53;;
23567;SDS011;11962;50.838;4.430;2023-05-19T08:17:19;8.57;;;4.60;;
23567;SDS011;11962;50.838;4.430;2023-05-19T08:19:45;7.97;;;4.50;;
23567;SDS011;11962;50.838;4.430;2023-05-19T08:22:11;7.85;;;4.03;;
23567;SDS011;11962;50.838;4.430;2023-05-19T08:24:37;7.32;;;4.30;;
23567;SDS011;11962;50.838;4.430;2023-05-19T08:27:03;11.40;;;4.85;;
23567;SDS011;11962;50.838;4.430;2023-05-19T08:29:29;11.63;;;4.37;;
23567;SDS011;11962;50.838;4.430;2023-05-19T08:31:55;8.60;;;4.20;;
23567;SDS011;11962;50.838;4.430;2023-05-19T08:34:22;6.43;;;3.65;;
23567;SDS011;11962;50.838;4.430;2023-05-19T08:36:48;6.90;;;3.65;;
23567;SDS011;11962;50.838;4.430;2023-05-19T08:39:14;10.32;;;4.30;;
23567;SDS011;11962;50.838;4.430;2023-05-19T08:41:42;11.02;;;3.95;;
23567;SDS011;11962;50.838;4.430;2023-05-19T08:44:08;10.13;;;3.95;;
23567;SDS011;11962;50.838;4.430;2023-05-19T08:46:33;10.30;;;4.30;;
23567;SDS011;11962;50.838;4.430;2023-05-19T08:49:04;8.05;;;4.13;;
23567;SDS011;11962;50.838;4.430;2023-05-19T08:51:59;8.73;;;3.83;;
23567;SDS011;11962;50.838;4.430;2023-05-19T08:54:32;7.68;;;3.60;;
23567;SDS011;11962;50.838;4.430;2023-05-19T08:57:09;5.72;;;3.00;;
23567;SDS011;11962;50.838;4.430;2023-05-19T08:59:37;8.90;;;3.05;;
23567;SDS011;11962;50.838;4.430;2023-05-19T09:02:05;4.72;;;3.03;;
23567;SDS011;11962;50.838;4.430;2023-05-19T09:04:34;7.38;;;3.08;;
23567;SDS011;11962;50.838;4.430;2023-05-19T09:07:00;7.25;;;3.15;;
23567;SDS011;11962;50.838;4.430;2023-05-19T09:09:28;7.03;;;3.00;;
23567;SDS011;11962;50.838;4.430;2023-05-19T09:11:54;4.88;;;2.83;;
23567;SDS011;11962;50.838;4.430;2023-05-19T09:14:20;7.90;;;3.13;;
23567;SDS011;11962;50.838;4.430;2023-05-19T09:16:46;8.45;;;2.90;;
23567;SDS011;11962;50.838;4.430;2023-05-19T09:19:16;7.40;;;3.08;;
23567;SDS011;11962;50.838;4.430;2023-05-19T09:21:42;8.00;;;3.07;;
23567;SDS011;11962;50.838;4.430;2023-05-19T09:24:09;6.38;;;2.90;;
23567;SDS011;11962;50.838;4.430;2023-05-19T09:26:38;5.43;;;2.60;;
23567;SDS011;11962;50.838;4.430;2023-05-19T09:29:12;4.95;;;2.47;;
23567;SDS011;11962;50.838;4.430;2023-05-19T09:31:48;7.60;;;2.97;;
23567;SDS011;11962;50.838;4.430;2023-05-19T09:34:14;5.90;;;2.45;;
23567;SDS011;11962;50.838;4.430;2023-05-19T09:36:40;4.90;;;2.33;;
23567;SDS011;11962;50.838;4.430;2023-05-19T09:39:13;15.03;;;2.77;;
23567;SDS011;11962;50.838;4.430;2023-05-19T09:41:39;7.25;;;2.05;;
23567;SDS011;11962;50.838;4.430;2023-05-19T09:44:05;6.85;;;2.40;;
23567;SDS011;11962;50.838;4.430;2023-05-19T09:46:31;7.90;;;2.13;;
23567;SDS011;11962;50.838;4.430;2023-05-19T09:48:59;5.72;;;2.08;;
23567;SDS011;11962;50.838;4.430;2023-05-19T09:51:35;4.97;;;1.60;;
23567;SDS011;11962;50.838;4.430;2023-05-19T09:54:03;5.03;;;2.00;;
23567;SDS011;11962;50.838;4.430;2023-05-19T09:56:35;8.27;;;2.20;;
23567;SDS011;11962;50.838;4.430;2023-05-19T09:59:03;6.43;;;2.55;;
23567;SDS011;11962;50.838;4.430;2023-05-19T10:01:31;8.00;;;2.17;;
23567;SDS011;11962;50.838;4.430;2023-05-19T10:03:58;7.32;;;2.10;;
23567;SDS011;11962;50.838;4.430;2023-05-19T10:06:25;8.27;;;2.67;;
23567;SDS011;11962;50.838;4.430;2023-05-19T10:08:51;12.10;;;2.38;;
23567;SDS011;11962;50.838;4.430;2023-05-19T10:11:18;11.27;;;2.50;;
23567;SDS011;11962;50.838;4.430;2023-05-19T10:16:13;8.05;;;2.30;;
23567;SDS011;11962;50.838;4.430;2023-05-19T10:18:40;6.40;;;2.35;;
23567;SDS011;11962;50.838;4.430;2023-05-19T10:21:07;10.13;;;2.90;;
23567;SDS011;11962;50.838;4.430;2023-05-19T10:23:33;6.40;;;2.35;;
23567;SDS011;11962;50.838;4.430;2023-05-19T10:25:59;4.80;;;2.08;;
23567;SDS011;11962;50.838;4.430;2023-05-19T10:28:38;5.88;;;2.97;;
23567;SDS011;11962;50.838;4.430;2023-05-19T10:31:08;5.60;;;2.50;;
23567;SDS011;11962;50.838;4.430;2023-05-19T10:33:41;8.45;;;2.67;;
23567;SDS011;11962;50.838;4.430;2023-05-19T10:39:02;7.53;;;2.30;;
23567;SDS011;11962;50.838;4.430;2023-05-19T10:44:08;6.15;;;3.35;;
23567;SDS011;11962;50.838;4.430;2023-05-19T10:46:54;7.15;;;2.97;;
23567;SDS011;11962;50.838;4.430;2023-05-19T10:49:20;7.05;;;2.90;;
23567;SDS011;11962;50.838;4.430;2023-05-19T10:51:46;5.40;;;2.55;;
23567;SDS011;11962;50.838;4.430;2023-05-19T10:54:12;5.47;;;2.65;;
23567;SDS011;11962;50.838;4.430;2023-05-19T10:56:41;7.03;;;2.50;;
23567;SDS011;11962;50.838;4.430;2023-05-19T10:59:30;10.73;;;3.00;;
23567;SDS011;11962;50.838;4.430;2023-05-19T11:01:56;7.50;;;2.65;;
23567;SDS011;11962;50.838;4.430;2023-05-19T11:04:46;4.63;;;2.20;;
23567;SDS011;11962;50.838;4.430;2023-05-19T11:07:17;8.48;;;2.80;;
23567;SDS011;11962;50.838;4.430;2023-05-19T11:09:48;6.47;;;2.88;;
23567;SDS011;11962;50.838;4.430;2023-05-19T11:12:19;7.75;;;2.53;;
23567;SDS011;11962;50.838;4.430;2023-05-19T11:14:51;8.95;;;2.65;;
23567;SDS011;11962;50.838;4.430;2023-05-19T11:17:18;6.47;;;2.25;;
23567;SDS011;11962;50.838;4.430;2023-05-19T11:19:54;6.35;;;2.70;;
23567;SDS011;11962;50.838;4.430;2023-05-19T11:22:21;10.82;;;2.78;;
23567;SDS011;11962;50.838;4.430;2023-05-19T11:24:49;6.90;;;2.70;;
23567;SDS011;11962;50.838;4.430;2023-05-19T11:27:22;9.93;;;2.65;;
23567;SDS011;11962;50.838;4.430;2023-05-19T11:29:52;5.45;;;2.30;;
23567;SDS011;11962;50.838;4.430;2023-05-19T11:32:20;6.88;;;2.67;;
23567;SDS011;11962;50.838;4.430;2023-05-19T11:34:47;10.15;;;3.15;;
23567;SDS011;11962;50.838;4.430;2023-05-19T11:37:14;6.78;;;2.63;;
23567;SDS011;11962;50.838;4.430;2023-05-19T11:39:40;5.90;;;3.10;;
23567;SDS011;11962;50.838;4.430;2023-05-19T11:42:09;6.13;;;2.80;;
23567;SDS011;11962;50.838;4.430;2023-05-19T11:44:35;5.75;;;2.25;;
23567;SDS011;11962;50.838;4.430;2023-05-19T11:47:02;9.55;;;2.55;;
23567;SDS011;11962;50.838;4.430;2023-05-19T11:49:29;11.68;;;3.00;;
23567;SDS011;11962;50.838;4.430;2023-05-19T11:51:55;8.45;;;2.55;;
23567;SDS011;11962;50.838;4.430;2023-05-19T11:54:21;6.32;;;2.15;;
23567;SDS011;11962;50.838;4.430;2023-05-19T11:57:01;7.45;;;2.50;;
23567;SDS011;11962;50.838;4.430;2023-05-19T11:59:34;10.07;;;2.72;;
23567;SDS011;11962;50.838;4.430;2023-05-19T12:02:23;11.07;;;2.55;;
23567;SDS011;11962;50.838;4.430;2023-05-19T12:04:52;9.75;;;2.30;;
23567;SDS011;11962;50.838;4.430;2023-05-19T12:07:19;7.97;;;2.40;;
23567;SDS011;11962;50.838;4.430;2023-05-19T12:09:47;7.00;;;2.08;;
23567;SDS011;11962;50.838;4.430;2023-05-19T12:12:18;6.53;;;2.10;;
23567;SDS011;11962;50.838;4.430;2023-05-19T12:14:48;8.43;;;2.42;;
23567;SDS011;11962;50.838;4.430;2023-05-19T12:17:15;7.18;;;2.55;;
23567;SDS011;11962;50.838;4.430;2023-05-19T12:19:43;7.35;;;2.60;;
23567;SDS011;11962;50.838;4.430;2023-05-19T12:22:10;7.40;;;2.90;;
23567;SDS011;11962;50.838;4.430;2023-05-19T12:24:37;7.00;;;2.33;;
23567;SDS011;11962;50.838;4.430;2023-05-19T12:27:11;6.22;;;2.42;;
23567;SDS011;11962;50.838;4.430;2023-05-19T12:29:40;9.85;;;2.60;;
23567;SDS011;11962;50.838;4.430;2023-05-19T12:32:06;11.80;;;2.45;;
23567;SDS011;11962;50.838;4.430;2023-05-19T12:34:36;7.97;;;2.38;;
23567;SDS011;11962;50.838;4.430;2023-05-19T12:37:03;6.30;;;2.13;;
23567;SDS011;11962;50.838;4.430;2023-05-19T12:39:29;7.63;;;2.40;;
23567;SDS011;11962;50.838;4.430;2023-05-19T12:42:09;6.60;;;2.30;;
23567;SDS011;11962;50.838;4.430;2023-05-19T12:44:49;5.68;;;2.08;;
23567;SDS011;11962;50.838;4.430;2023-05-19T12:47:16;4.78;;;1.90;;
23567;SDS011;11962;50.838;4.430;2023-05-19T12:49:59;5.90;;;2.17;;
23567;SDS011;11962;50.838;4.430;2023-05-19T12:52:26;6.88;;;2.10;;
23567;SDS011;11962;50.838;4.430;2023-05-19T12:55:06;7.45;;;2.20;;
23567;SDS011;11962;50.838;4.430;2023-05-19T12:57:42;11.05;;;2.47;;
23567;SDS011;11962;50.838;4.430;2023-05-19T13:07:55;7.50;;;2.35;;
23567;SDS011;11962;50.838;4.430;2023-05-19T13:10:26;7.22;;;2.30;;
23567;SDS011;11962;50.838;4.430;2023-05-19T13:12:56;6.80;;;2.40;;
23567;SDS011;11962;50.838;4.430;2023-05-19T13:15:23;9.48;;;2.35;;
23567;SDS011;11962;50.838;4.430;2023-05-19T13:17:50;5.40;;;2.10;;
23567;SDS011;11962;50.838;4.430;2023-05-19T13:20:17;9.77;;;2.55;;
23567;SDS011;11962;50.838;4.430;2023-05-19T13:22:43;9.20;;;2.13;;
23567;SDS011;11962;50.838;4.430;2023-05-19T13:25:09;5.75;;;2.22;;
23567;SDS011;11962;50.838;4.430;2023-05-19T13:27:35;7.95;;;2.40;;
23567;SDS011;11962;50.838;4.430;2023-05-19T13:30:02;4.63;;;2.03;;
23567;SDS011;11962;50.838;4.430;2023-05-19T13:32:29;6.97;;;2.23;;
23567;SDS011;11962;50.838;4.430;2023-05-19T13:34:55;4.95;;;2.20;;
23567;SDS011;11962;50.838;4.430;2023-05-19T13:37:21;8.18;;;2.50;;
23567;SDS011;11962;50.838;4.430;2023-05-19T13:39:47;8.70;;;2.58;;
23567;SDS011;11962;50.838;4.430;2023-05-19T13:42:12;5.78;;;2.30;;
23567;SDS011;11962;50.838;4.430;2023-05-19T13:44:38;5.75;;;2.15;;
23567;SDS011;11962;50.838;4.430;2023-05-19T13:47:04;8.70;;;2.22;;
23567;SDS011;11962;50.838;4.430;2023-05-19T13:49:30;24.25;;;11.35;;
23567;SDS011;11962;50.838;4.430;2023-05-19T13:51:56;8.40;;;2.80;;
23567;SDS011;11962;50.838;4.430;2023-05-19T13:54:22;9.00;;;2.75;;
23567;SDS011;11962;50.838;4.430;2023-05-19T13:56:48;9.45;;;2.70;;
23567;SDS011;11962;50.838;4.430;2023-05-19T13:59:14;7.63;;;2.72;;
23567;SDS011;11962;50.838;4.430;2023-05-19T14:01:45;6.45;;;2.47;;
23567;SDS011;11962;50.838;4.430;2023-05-19T14:04:11;8.35;;;2.85;;
23567;SDS011;11962;50.838;4.430;2023-05-19T14:06:37;7.75;;;3.40;;
23567;SDS011;11962;50.838;4.430;2023-05-19T14:09:02;6.82;;;2.20;;
23567;SDS011;11962;50.838;4.430;2023-05-19T14:11:32;5.25;;;2.35;;
23567;SDS011;11962;50.838;4.430;2023-05-19T14:13:58;6.03;;;2.42;;
23567;SDS011;11962;50.838;4.430;2023-05-19T14:16:24;7.22;;;2.72;;
23567;SDS011;11962;50.838;4.430;2023-05-19T14:18:51;12.68;;;2.53;;
23567;SDS011;11962;50.838;4.430;2023-05-19T14:21:17;7.00;;;2.40;;
23567;SDS011;11962;50.838;4.430;2023-05-19T14:23:42;6.45;;;2.30;;
23567;SDS011;11962;50.838;4.430;2023-05-19T14:26:08;6.45;;;2.10;;
23567;SDS011;11962;50.838;4.430;2023-05-19T14:28:34;5.13;;;2.15;;
23567;SDS011;11962;50.838;4.430;2023-05-19T14:31:00;5.75;;;1.98;;
23567;SDS011;11962;50.838;4.430;2023-05-19T14:33:25;6.90;;;2.20;;
23567;SDS011;11962;50.838;4.430;2023-05-19T14:35:51;5.55;;;2.15;;
23567;SDS011;11962;50.838;4.430;2023-05-19T14:38:17;8.75;;;2.58;;
23567;SDS011;11962;50.838;4.430;2023-05-19T14:40:43;5.40;;;2.35;;
23567;SDS011;11962;50.838;4.430;2023-05-19T14:43:09;6.15;;;2.28;;
23567;SDS011;11962;50.838;4.430;2023-05-19T14:45:37;5.05;;;1.90;;
23567;SDS011;11962;50.838;4.430;2023-05-19T14:48:02;6.95;;;2.53;;
23567;SDS011;11962;50.838;4.430;2023-05-19T14:50:29;5.57;;;1.88;;
23567;SDS011;11962;50.838;4.430;2023-05-19T14:52:55;8.13;;;2.33;;
23567;SDS011;11962;50.838;4.430;2023-05-19T14:55:21;16.45;;;3.88;;
23567;SDS011;11962;50.838;4.430;2023-05-19T14:57:47;13.18;;;3.33;;
23567;SDS011;11962;50.838;4.430;2023-05-19T15:00:14;6.68;;;2.58;;
23567;SDS011;11962;50.838;4.430;2023-05-19T15:02:41;7.43;;;2.85;;
23567;SDS011;11962;50.838;4.430;2023-05-19T15:05:07;5.75;;;1.88;;
23567;SDS011;11962;50.838;4.430;2023-05-19T15:07:33;7.68;;;2.13;;
23567;SDS011;11962;50.838;4.430;2023-05-19T15:09:59;6.78;;;2.65;;
23567;SDS011;11962;50.838;4.430;2023-05-19T15:12:26;5.00;;;2.13;;
23567;SDS011;11962;50.838;4.430;2023-05-19T15:14:51;6.38;;;2.65;;
23567;SDS011;11962;50.838;4.430;2023-05-19T15:17:17;8.25;;;2.30;;
23567;SDS011;11962;50.838;4.430;2023-05-19T15:19:43;10.07;;;2.88;;